Time;durP1;ratioP1;P1;durP2;ratioP2;P2;SDS_P1;SDS_P2;PMS_P1;PMS_P2;Temp;Humidity;BMP_temperature;BMP_pressure;BME280_temperature;BME280_humidity;BME280_pressure;Samples;Min_cycle;Max_cycle;Signal;HPM_P1;HPM_P2
2022/02/09 00:02:39;;;;;;;5.35;4.85;;;;;;;6.04;100.00;97710.28;4968305;28;20078;-47
2022/02/09 00:08:03;;;;;;;5.93;4.55;;;;;;;5.93;100.00;97708.25;4964484;28;20513;-49
2022/02/09 00:10:33;;;;;;;6.15;4.80;;;;;;;5.86;100.00;97701.66;4964022;28;20067;-52
2022/02/09 00:13:28;;;;;;;8.27;5.00;;;;;;;5.63;100.00;97709.91;4964668;28;20074;-49
2022/02/09 00:16:05;;;;;;;7.05;5.00;;;;;;;5.36;100.00;97722.69;4967446;28;20525;-49
2022/02/09 00:18:41;;;;;;;7.13;4.93;;;;;;;5.60;100.00;97723.16;4964283;28;20450;-54
2022/02/09 00:21:30;;;;;;;9.32;5.38;;;;;;;5.14;100.00;97723.84;4965751;28;20066;-54
2022/02/09 00:24:35;;;;;;;5.95;4.72;;;;;;;5.46;100.00;97721.28;4966516;28;20467;-48
2022/02/09 00:38:33;;;;;;;5.85;4.82;;;;;;;5.14;100.00;97741.28;4968517;28;20405;-49
2022/02/09 00:44:21;;;;;;;6.18;5.15;;;;;;;5.52;100.00;97738.44;4965087;28;20073;-54
2022/02/09 01:12:20;;;;;;;6.80;4.80;;;;;;;5.72;100.00;97727.75;4964542;28;20086;-51
2022/02/09 01:39:56;;;;;;;6.25;4.60;;;;;;;5.28;100.00;97725.72;4964645;28;20067;-57
2022/02/09 01:51:16;;;;;;;5.85;4.85;;;;;;;5.46;100.00;97724.75;4932739;28;20063;-47
2022/02/09 01:56:39;;;;;;;7.10;4.90;;;;;;;5.43;100.00;97721.44;4980694;28;20082;-51
2022/02/09 01:59:07;;;;;;;5.20;4.70;;;;;;;5.58;100.00;97725.03;4970143;28;20089;-51
2022/02/09 02:01:36;;;;;;;6.80;5.00;;;;;;;5.38;100.00;97721.69;4967887;28;20063;-48
2022/02/09 02:04:05;;;;;;;6.15;4.90;;;;;;;5.46;100.00;97716.88;4968133;28;20155;-49
2022/02/09 02:06:34;;;;;;;7.10;5.00;;;;;;;5.49;100.00;97718.50;4966660;28;20089;-50
2022/02/09 02:09:04;;;;;;;5.77;5.00;;;;;;;5.62;100.00;97710.84;4964256;28;20065;-56
2022/02/09 02:11:39;;;;;;;6.88;5.32;;;;;;;5.14;100.00;97705.53;4966041;28;20540;-50
2022/02/09 02:14:19;;;;;;;6.50;4.70;;;;;;;5.26;100.00;97709.25;4968196;28;20495;-49
2022/02/09 02:16:52;;;;;;;5.45;4.93;;;;;;;5.12;100.00;97702.13;4965302;28;20058;-53
2022/02/09 02:19:32;;;;;;;6.80;5.20;;;;;;;5.48;100.00;97701.97;4968024;28;20070;-50
2022/02/09 02:22:13;;;;;;;7.07;5.32;;;;;;;5.54;100.00;97705.16;4966806;28;20093;-51
2022/02/09 02:25:05;;;;;;;7.65;5.53;;;;;;;5.45;100.00;97702.13;4971263;28;20532;-47
2022/02/09 02:33:22;;;;;;;5.32;4.82;;;;;;;5.75;100.00;97703.16;4961266;28;20065;-53
2022/02/09 02:58:18;;;;;;;5.72;4.65;;;;;;;6.03;100.00;97671.94;4967427;28;20054;-52
2022/02/09 03:09:18;;;;;;;6.13;4.50;;;;;;;6.12;100.00;97665.31;4964174;28;20073;-49
2022/02/09 03:12:03;;;;;;;7.97;4.50;;;;;;;6.06;100.00;97657.84;4967061;28;20069;-50
2022/02/09 03:14:38;;;;;;;5.25;4.63;;;;;;;6.25;100.00;97666.31;4966660;28;20238;-54
2022/02/09 03:17:12;;;;;;;5.25;4.72;;;;;;;6.35;100.00;97657.00;4964459;28;21376;-55
2022/02/09 03:19:51;;;;;;;5.80;4.75;;;;;;;6.13;100.00;97667.03;4965275;28;20456;-50
2022/02/09 03:22:24;;;;;;;5.28;4.78;;;;;;;6.32;100.00;97653.72;4963652;28;20155;-53
2022/02/09 03:30:52;;;;;;;6.43;4.70;;;;;;;6.40;100.00;97656.72;4937659;28;20062;-52
2022/02/09 03:31:08;;;;;;;5.07;4.50;;;;;;;6.31;100.00;97652.88;4965864;28;20058;-50
2022/02/09 03:42:35;;;;;;;5.60;4.50;;;;;;;6.66;100.00;97653.41;4963516;28;20709;-49
2022/02/09 03:45:44;;;;;;;4.65;4.25;;;;;;;6.44;100.00;97644.31;4964934;28;20089;-48
2022/02/09 03:48:29;;;;;;;5.55;4.93;;;;;;;6.64;100.00;97649.19;4966124;28;20097;-49
2022/02/09 03:51:36;;;;;;;5.57;4.30;;;;;;;6.16;100.00;97654.59;4962799;28;20495;-49
2022/02/09 03:54:12;;;;;;;5.57;4.18;;;;;;;6.21;100.00;97638.63;4964975;28;20069;-50
2022/02/09 03:56:57;;;;;;;5.85;4.47;;;;;;;6.77;100.00;97638.81;4964835;28;20127;-49
2022/02/09 03:59:28;;;;;;;4.50;4.10;;;;;;;6.85;100.00;97626.97;4966216;28;20462;-54
2022/02/09 04:01:58;;;;;;;4.88;4.38;;;;;;;6.72;100.00;97622.53;4964500;28;20066;-47
2022/02/09 04:04:26;;;;;;;4.32;3.92;;;;;;;6.67;100.00;97609.69;4962033;28;20053;-54
2022/02/09 04:06:55;;;;;;;4.85;4.15;;;;;;;6.16;100.00;97611.88;4965562;28;20074;-48
2022/02/09 04:09:28;;;;;;;4.63;4.18;;;;;;;6.27;100.00;97608.63;4965862;28;20070;-49
2022/02/09 04:12:04;;;;;;;4.00;3.60;;;;;;;6.60;100.00;97616.25;4965247;28;20082;-54
2022/02/09 04:14:43;;;;;;;4.40;4.00;;;;;;;6.29;100.00;97606.72;4963707;28;21387;-58
2022/02/09 04:17:24;;;;;;;5.78;4.10;;;;;;;6.24;100.00;97607.00;4964590;28;20478;-50
2022/02/09 04:20:13;;;;;;;5.07;4.30;;;;;;;6.38;100.00;97604.41;4962174;28;20043;-54
2022/02/09 04:36:43;;;;;;;4.18;3.78;;;;;;;5.93;100.00;97600.91;4963356;28;20062;-47
2022/02/09 04:39:21;;;;;;;4.25;3.85;;;;;;;5.95;100.00;97598.19;4966538;28;20073;-55
2022/02/09 04:42:01;;;;;;;4.90;4.32;;;;;;;6.06;100.00;97601.06;4992191;28;20074;-48
2022/02/09 04:44:51;;;;;;;4.05;3.70;;;;;;;6.30;100.00;97595.34;4964650;28;20477;-57
2022/02/09 04:47:30;;;;;;;5.80;4.55;;;;;;;5.86;100.00;97603.94;4954584;28;20605;-53
2022/02/09 04:50:07;;;;;;;6.03;4.28;;;;;;;6.15;100.00;97599.69;4994968;28;20117;-52
2022/02/09 04:52:53;;;;;;;5.03;4.00;;;;;;;5.85;100.00;97603.13;4965730;28;20081;-53
2022/02/09 04:55:47;;;;;;;6.75;4.70;;;;;;;6.15;100.00;97605.75;4962829;28;20074;-49
2022/02/09 04:58:24;;;;;;;4.72;4.00;;;;;;;6.20;100.00;97600.28;4963352;28;20078;-54
2022/02/09 05:01:00;;;;;;;4.60;4.00;;;;;;;6.61;100.00;97597.81;4971181;28;20073;-52
2022/02/09 05:03:47;;;;;;;6.60;4.20;;;;;;;6.50;100.00;97589.72;4965647;28;20720;-50
2022/02/09 05:23:06;;;;;;;4.45;4.10;;;;;;;6.27;100.00;97585.88;4965303;28;20058;-51
2022/02/09 05:25:46;;;;;;;3.92;3.63;;;;;;;5.61;100.00;97581.78;4963926;28;20074;-49
2022/02/09 05:28:16;;;;;;;4.43;4.03;;;;;;;5.80;100.00;97586.81;4966282;28;20533;-55
2022/02/09 05:30:47;;;;;;;4.45;4.00;;;;;;;6.01;100.00;97584.75;4965659;28;20742;-52
2022/02/09 05:33:16;;;;;;;4.03;3.72;;;;;;;5.98;100.00;97589.34;4970486;28;20069;-50
2022/02/09 05:35:48;;;;;;;5.70;3.92;;;;;;;5.59;100.00;97590.66;4969235;28;20081;-53
2022/02/09 05:38:19;;;;;;;4.57;4.18;;;;;;;5.91;100.00;97587.03;4971592;28;20082;-48
2022/02/09 05:40:48;;;;;;;4.68;4.28;;;;;;;5.78;100.00;97586.06;4965861;28;20090;-48
2022/02/09 05:43:17;;;;;;;4.00;3.67;;;;;;;5.92;100.00;97583.53;4969532;28;20059;-49
2022/02/09 05:46:06;;;;;;;4.70;4.10;;;;;;;5.73;100.00;97580.25;4969832;28;20066;-47
2022/02/09 05:49:16;;;;;;;4.85;3.60;;;;;;;5.92;100.00;97582.66;4968805;28;20476;-53
2022/02/09 05:51:35;;;;;;;5.13;4.10;;;;;;;5.90;100.00;97582.72;4965236;28;20070;-49
2022/02/09 05:54:21;;;;;;;4.82;3.85;;;;;;;6.21;100.00;97578.38;4966572;28;20090;-47
2022/02/09 05:57:11;;;;;;;4.97;4.47;;;;;;;6.19;100.00;97580.22;4958615;28;20183;-48
2022/02/09 05:59:38;;;;;;;5.75;4.07;;;;;;;5.92;100.00;97578.31;4969011;28;20108;-56
2022/02/09 06:02:06;;;;;;;4.90;3.80;;;;;;;6.14;100.00;97580.50;4958297;28;20464;-55
2022/02/09 06:04:38;;;;;;;4.53;4.03;;;;;;;6.33;100.00;97575.03;4960623;28;20059;-52
2022/02/09 06:07:06;;;;;;;5.70;4.68;;;;;;;6.26;100.00;97580.72;4969879;28;20071;-50
2022/02/09 06:09:37;;;;;;;4.95;4.45;;;;;;;6.22;100.00;97573.97;4969865;28;20078;-51
2022/02/09 06:12:12;;;;;;;6.50;4.70;;;;;;;6.32;100.00;97578.56;4969169;28;20073;-54
2022/02/09 06:14:57;;;;;;;5.15;4.65;;;;;;;6.20;100.00;97581.09;4967067;28;20078;-48
2022/02/09 06:20:13;;;;;;;4.03;3.70;;;;;;;6.02;100.00;97582.97;4938066;28;20074;-46
2022/02/09 06:22:41;;;;;;;4.22;3.63;;;;;;;5.69;100.00;97581.34;4967945;28;20474;-47
2022/02/09 06:25:11;;;;;;;4.22;3.55;;;;;;;5.43;100.00;97590.63;4970131;28;20074;-45
2022/02/09 06:27:39;;;;;;;3.70;3.40;;;;;;;5.25;100.00;97587.28;4969428;28;20078;-55
2022/02/09 06:30:10;;;;;;;4.05;3.50;;;;;;;5.20;100.00;97600.59;4968519;28;20541;-44
2022/02/09 06:32:38;;;;;;;3.85;3.20;;;;;;;5.59;100.00;97596.72;4969329;28;20070;-51
2022/02/09 06:35:07;;;;;;;3.85;3.53;;;;;;;5.16;100.00;97606.06;4958612;28;20470;-47
2022/02/09 06:37:41;;;;;;;3.70;3.40;;;;;;;5.18;100.00;97605.06;4965858;28;20074;-48
2022/02/09 06:40:14;;;;;;;4.10;3.70;;;;;;;4.91;100.00;97599.53;4968608;28;20070;-50
2022/02/09 06:42:43;;;;;;;3.80;3.50;;;;;;;5.18;100.00;97602.44;4967822;28;20069;-49
2022/02/09 06:45:17;;;;;;;3.80;3.50;;;;;;;5.48;100.00;97592.09;4968963;28;20555;-47
2022/02/09 06:47:46;;;;;;;3.90;3.60;;;;;;;5.18;100.00;97601.63;4968132;28;20086;-51
2022/02/09 06:50:21;;;;;;;3.90;3.60;;;;;;;5.11;100.00;97595.03;4969177;28;20081;-53
2022/02/09 06:53:00;;;;;;;3.90;3.45;;;;;;;4.95;100.00;97595.84;4967779;28;20629;-46
2022/02/09 06:55:30;;;;;;;3.90;3.60;;;;;;;4.75;100.00;97581.25;4957125;28;20085;-54
2022/02/09 06:58:02;;;;;;;3.90;3.60;;;;;;;4.99;100.00;97594.78;4953449;28;20089;-52
2022/02/09 07:00:31;;;;;;;3.65;3.35;;;;;;;4.90;100.00;97589.19;4956034;28;20085;-47
2022/02/09 07:03:00;;;;;;;4.05;3.75;;;;;;;4.95;100.00;97585.38;4968007;28;20080;-51
2022/02/09 07:05:28;;;;;;;6.35;3.47;;;;;;;5.16;100.00;97578.19;4969616;28;20075;-50
2022/02/09 07:07:57;;;;;;;4.25;3.85;;;;;;;5.22;100.00;97576.97;4967736;28;20054;-46
2022/02/09 07:10:25;;;;;;;3.83;3.53;;;;;;;4.95;100.00;97577.53;4967470;28;20070;-50
2022/02/09 07:12:55;;;;;;;4.63;3.40;;;;;;;5.04;100.00;97586.66;4968333;28;20100;-54
2022/02/09 07:15:29;;;;;;;4.23;3.87;;;;;;;4.93;100.00;97587.25;4968920;28;20078;-53
2022/02/09 07:18:03;;;;;;;3.90;3.60;;;;;;;4.65;100.00;97584.41;4967464;28;20078;-45
2022/02/09 07:20:41;;;;;;;4.10;3.70;;;;;;;5.01;100.00;97589.44;4970393;28;20170;-47
2022/02/09 07:23:18;;;;;;;4.20;3.90;;;;;;;5.23;100.00;97584.75;4967763;28;20262;-49
2022/02/09 07:25:58;;;;;;;4.05;3.70;;;;;;;5.16;100.00;97582.53;4953837;28;20063;-49
2022/02/09 07:28:28;;;;;;;6.50;4.30;;;;;;;5.16;100.00;97583.41;4948971;28;20070;-47
2022/02/09 07:30:57;;;;;;;4.60;4.07;;;;;;;5.28;100.00;97584.50;4961866;28;20084;-48
2022/02/09 07:33:26;;;;;;;4.70;3.90;;;;;;;5.30;100.00;97582.66;4967661;28;20536;-47
2022/02/09 07:35:55;;;;;;;4.45;4.05;;;;;;;4.96;100.00;97588.88;4969052;28;20081;-52
2022/02/09 07:38:23;;;;;;;4.47;4.05;;;;;;;5.27;100.00;97574.97;4974045;28;20085;-51
2022/02/09 07:40:57;;;;;;;4.05;3.70;;;;;;;4.68;100.00;97576.38;4974567;28;20070;-45
2022/02/09 07:43:26;;;;;;;4.50;3.92;;;;;;;5.04;100.00;97585.84;4967291;28;20462;-50
2022/02/09 07:46:20;;;;;;;4.72;3.70;;;;;;;5.18;100.00;97581.53;4967662;28;20121;-52
2022/02/09 07:49:01;;;;;;;4.10;3.80;;;;;;;5.52;100.00;97568.38;4965204;28;20620;-52
2022/02/09 07:54:25;;;;;;;4.43;3.50;;;;;;;5.67;100.00;97562.25;4959195;28;20070;-50
2022/02/09 07:56:54;;;;;;;5.30;3.78;;;;;;;5.86;100.00;97556.84;4968225;28;20086;-52
2022/02/09 07:59:24;;;;;;;6.43;3.75;;;;;;;5.97;100.00;97553.63;4968343;28;20117;-45
2022/02/09 08:01:54;;;;;;;5.47;4.10;;;;;;;6.30;100.00;97562.13;4967260;28;20069;-50
2022/02/09 08:04:22;;;;;;;5.63;4.30;;;;;;;6.32;100.00;97564.63;4966886;28;20066;-49
2022/02/09 08:06:51;;;;;;;6.53;4.25;;;;;;;6.32;100.00;97564.63;4964436;28;20508;-49
2022/02/09 08:09:27;;;;;;;7.88;4.35;;;;;;;6.46;100.00;97562.03;4960210;28;20066;-50
2022/02/09 08:12:13;;;;;;;5.45;4.40;;;;;;;6.49;100.00;97559.22;4967464;28;20086;-56
2022/02/09 08:28:48;;;;;;;4.50;4.00;;;;;;;6.75;100.00;97562.06;4940396;28;20077;-52
2022/02/09 08:34:00;;;;;;;4.78;4.10;;;;;;;7.14;100.00;97550.88;4951950;28;20080;-48
2022/02/09 08:36:28;;;;;;;8.75;4.07;;;;;;;7.27;100.00;97553.56;4966631;28;20085;-54
2022/02/09 08:38:57;;;;;;;4.93;3.97;;;;;;;7.44;100.00;97549.88;4966669;28;20097;-47
2022/02/09 08:41:25;;;;;;;6.68;3.53;;;;;;;6.94;100.00;97559.97;4968354;28;20082;-47
2022/02/09 08:43:54;;;;;;;4.35;3.67;;;;;;;7.10;100.00;97560.72;4964931;28;20062;-51
2022/02/09 08:46:24;;;;;;;5.70;3.77;;;;;;;7.37;100.00;97558.13;4966600;28;20050;-54
2022/02/09 08:48:53;;;;;;;4.10;3.67;;;;;;;7.44;100.00;97555.13;4965389;28;20063;-50
2022/02/09 08:51:24;;;;;;;7.40;3.83;;;;;;;7.44;100.00;97553.34;4964757;28;20062;-45
2022/02/09 08:53:53;;;;;;;5.35;4.07;;;;;;;7.64;100.00;97556.44;4966445;28;20081;-54
2022/02/09 08:56:23;;;;;;;7.88;3.85;;;;;;;7.31;100.00;97550.66;4968964;28;20089;-45
2022/02/09 08:58:51;;;;;;;6.40;3.70;;;;;;;7.06;100.00;97551.38;4965114;28;20089;-50
2022/02/09 09:01:33;;;;;;;6.28;3.90;;;;;;;6.96;100.00;97549.41;4966008;28;20058;-46
2022/02/09 09:04:10;;;;;;;3.75;3.35;;;;;;;7.17;100.00;97545.44;4966048;28;20615;-49
2022/02/09 09:06:43;;;;;;;6.40;4.38;;;;;;;6.92;100.00;97545.28;4963423;28;20073;-45
2022/02/09 09:09:25;;;;;;;5.63;4.40;;;;;;;6.84;100.00;97548.38;4953870;28;20074;-49
2022/02/09 09:17:46;;;;;;;5.55;3.83;;;;;;;7.42;100.00;97528.13;4967109;28;20484;-50
2022/02/09 10:00:04;;;;;;;8.40;4.22;;;;;;;9.17;100.00;97536.41;4966262;28;20347;-49
2022/02/09 10:02:44;;;;;;;4.97;3.70;;;;;;;9.37;100.00;97534.13;4967569;28;20070;-53
2022/02/09 10:31:33;;;;;;;4.50;3.40;;;;;;;10.10;100.00;97530.50;4976360;28;20076;-54
2022/02/09 10:34:06;;;;;;;4.30;3.58;;;;;;;10.14;100.00;97537.22;4968812;28;20070;-51
2022/02/09 10:36:48;;;;;;;4.50;3.72;;;;;;;10.11;100.00;97519.84;4967985;28;20066;-52
2022/02/09 10:39:20;;;;;;;6.93;3.60;;;;;;;10.21;100.00;97522.63;4967972;28;20062;-52
2022/02/09 10:41:56;;;;;;;5.40;3.25;;;;;;;10.06;100.00;97516.72;4969290;28;20093;-54
2022/02/09 10:44:27;;;;;;;4.47;3.40;;;;;;;10.54;100.00;97507.88;4970875;28;20533;-55
2022/02/09 10:46:57;;;;;;;;;;;;;;;10.51;100.00;97498.38;4970453;28;20055;-49
2022/02/09 10:49:29;;;;;;;3.92;3.28;;;;;;;10.60;100.00;97494.22;4973458;28;20076;-47
2022/02/09 10:52:15;;;;;;;4.53;3.60;;;;;;;10.51;100.00;97498.38;4970946;28;20070;-52
2022/02/09 10:54:43;;;;;;;4.63;3.33;;;;;;;10.94;100.00;97492.38;4973755;28;20540;-56
2022/02/09 10:57:12;;;;;;;6.00;3.38;;;;;;;11.08;100.00;97484.22;4970554;28;20059;-50
2022/02/09 10:59:46;;;;;;;3.75;3.28;;;;;;;10.81;100.00;97479.31;4969042;28;20203;-52
2022/02/09 11:02:17;;;;;;;4.25;2.88;;;;;;;10.72;100.00;97477.41;4970184;28;20529;-50
2022/02/09 11:04:48;;;;;;;6.55;3.33;;;;;;;10.82;100.00;97469.59;4967452;28;20069;-51
2022/02/09 11:07:18;;;;;;;4.90;3.30;;;;;;;11.13;100.00;97476.75;4968378;28;20062;-48
2022/02/09 11:09:49;;;;;;;3.67;3.13;;;;;;;11.10;100.00;97471.72;4968429;28;20062;-53
2022/02/09 11:12:17;;;;;;;5.38;3.40;;;;;;;11.22;100.00;97466.41;4967989;28;20066;-52
2022/02/09 11:14:47;;;;;;;4.95;3.08;;;;;;;11.35;100.00;97462.66;4968005;28;20078;-47
2022/02/09 11:17:19;;;;;;;4.68;3.30;;;;;;;11.13;100.00;97460.09;4964428;28;20079;-48
2022/02/09 11:19:51;;;;;;;6.57;3.22;;;;;;;11.13;100.00;97453.00;4969896;28;20061;-58
2022/02/09 11:22:23;;;;;;;5.35;3.40;;;;;;;11.16;100.00;97454.56;4968438;28;20104;-53
2022/02/09 11:25:10;;;;;;;4.80;3.20;;;;;;;11.24;100.00;97456.56;4968330;28;20093;-50
2022/02/09 11:27:45;;;;;;;4.10;3.00;;;;;;;11.12;100.00;97443.41;4965927;28;20089;-55
2022/02/09 11:30:23;;;;;;;5.00;3.00;;;;;;;11.46;100.00;97448.59;4965972;28;20063;-56
2022/02/09 11:33:19;;;;;;;4.43;3.30;;;;;;;11.21;100.00;97438.34;4965622;28;20090;-49
2022/02/09 11:36:06;;;;;;;4.05;2.70;;;;;;;11.28;100.00;97444.78;4968799;28;20078;-55
2022/02/09 11:38:43;;;;;;;5.35;3.25;;;;;;;11.25;99.47;97443.25;4964566;28;20790;-54
2022/02/09 11:41:18;;;;;;;5.28;3.20;;;;;;;11.53;100.00;97443.66;4967060;28;20465;-48
2022/02/09 11:43:57;;;;;;;4.03;2.78;;;;;;;11.40;100.00;97435.88;4966519;28;20497;-53
2022/02/09 11:58:44;;;;;;;3.28;2.72;;;;;;;11.55;100.00;97415.28;4976261;28;19968;-53
2022/02/09 12:01:40;;;;;;;3.78;2.60;;;;;;;12.00;100.00;97421.19;4971401;28;20066;-47
2022/02/09 12:10:15;;;;;;;3.22;2.70;;;;;;;11.88;100.00;97404.56;4967041;28;20058;-54
2022/02/09 12:12:49;;;;;;;3.20;2.80;;;;;;;11.74;94.48;97410.16;4967150;28;20182;-50
2022/02/09 12:16:32;;;;;;;3.10;2.80;;;;;;;11.84;100.00;97407.63;4969284;28;20085;-50
2022/02/09 12:19:04;;;;;;;3.30;3.00;;;;;;;11.78;96.63;97411.56;4964220;28;20399;-57
2022/02/09 12:21:42;;;;;;;3.40;2.95;;;;;;;12.08;100.00;97404.69;4971557;28;20089;-51
2022/02/09 12:24:22;;;;;;;3.22;2.60;;;;;;;12.05;96.88;97408.44;4975384;28;20086;-55
2022/02/09 12:26:59;;;;;;;4.45;2.95;;;;;;;12.11;100.00;97397.34;4972641;28;20548;-47
2022/02/09 12:29:34;;;;;;;5.38;2.75;;;;;;;11.84;93.74;97397.88;4966547;28;20074;-54
2022/02/09 12:32:04;;;;;;;3.58;2.55;;;;;;;12.09;96.92;97393.97;4957538;28;20078;-51
2022/02/09 12:34:39;;;;;;;3.58;2.95;;;;;;;12.17;81.14;97384.56;4963723;28;20070;-46
2022/02/09 12:37:16;;;;;;;2.88;2.67;;;;;;;12.38;100.00;97379.22;4972710;28;20066;-50
2022/02/09 12:39:48;;;;;;;3.30;2.70;;;;;;;12.41;100.00;97387.72;4966273;28;20062;-52
2022/02/09 12:42:18;;;;;;;5.30;2.50;;;;;;;12.50;98.83;97379.00;4967879;28;20089;-45
2022/02/09 12:44:58;;;;;;;3.20;2.80;;;;;;;12.50;100.00;97381.63;4966385;28;21466;-49
2022/02/09 12:47:31;;;;;;;3.22;2.55;;;;;;;12.51;77.53;97378.00;4966188;28;20517;-51
2022/02/09 12:50:02;;;;;;;4.38;2.60;;;;;;;12.17;93.13;97374.81;4965364;28;20063;-49
2022/02/09 12:52:35;;;;;;;3.17;2.60;;;;;;;12.25;92.29;97376.78;4965871;28;20066;-48
2022/02/09 12:55:13;;;;;;;3.75;2.70;;;;;;;12.28;88.43;97379.16;4965894;28;20073;-49
2022/02/09 12:57:44;;;;;;;3.58;2.80;;;;;;;12.46;95.46;97368.81;4965358;28;20078;-44
2022/02/09 13:00:24;;;;;;;3.38;2.53;;;;;;;12.75;92.73;97366.25;4968950;28;20078;-50
2022/02/09 13:02:53;;;;;;;5.22;2.88;;;;;;;12.42;90.10;97367.38;4965184;28;20492;-50
2022/02/09 13:05:21;;;;;;;4.07;3.17;;;;;;;12.57;80.31;97360.78;4965320;28;20066;-49
2022/02/09 13:07:59;;;;;;;3.25;2.78;;;;;;;12.72;73.19;97369.16;4964594;28;20074;-48
2022/02/09 13:10:29;;;;;;;3.40;2.95;;;;;;;12.93;75.75;97363.75;4966201;28;20070;-54
2022/02/09 13:13:04;;;;;;;2.95;2.47;;;;;;;13.06;82.50;97367.00;4965597;28;20063;-52
2022/02/09 13:15:39;;;;;;;2.65;2.17;;;;;;;12.78;100.00;97361.50;4960768;28;20078;-47
2022/02/09 13:18:31;;;;;;;2.90;2.60;;;;;;;12.69;100.00;97353.53;4968379;28;20627;-47
2022/02/09 13:24:14;;;;;;;2.67;2.47;;;;;;;13.01;90.13;97353.34;4963589;28;20494;-51
2022/02/09 14:12:26;;;;;;;3.08;2.47;;;;;;;13.30;96.78;97319.78;4968503;28;20457;-52
2022/02/09 14:15:24;;;;;;;3.20;2.22;;;;;;;13.26;100.00;97312.25;4967475;28;20234;-50
2022/02/09 14:35:12;;;;;;;3.10;2.38;;;;;;;13.57;89.35;97297.00;4946216;28;20062;-46
2022/02/09 14:52:02;;;;;;;4.05;2.00;;;;;;;13.57;100.00;97288.22;4955902;28;20066;-50
2022/02/09 14:54:38;;;;;;;3.60;2.20;;;;;;;13.47;95.83;97291.72;4951179;28;20082;-51
2022/02/09 14:57:10;;;;;;;3.05;2.00;;;;;;;13.86;83.21;97283.66;4970116;28;20081;-49
2022/02/09 14:59:51;;;;;;;2.53;2.10;;;;;;;13.61;86.71;97286.97;4968299;28;20058;-52
2022/02/09 15:02:34;;;;;;;1.95;1.85;;;;;;;13.84;73.87;97275.03;4967471;28;20093;-51
2022/02/09 15:05:38;;;;;;;3.50;2.20;;;;;;;13.80;91.52;97278.97;4955453;28;20093;-51
2022/02/09 15:08:11;;;;;;;4.13;2.10;;;;;;;13.57;100.00;97280.28;4960788;28;20078;-49
2022/02/09 15:10:46;;;;;;;2.97;2.15;;;;;;;13.90;87.36;97279.78;4966631;28;20093;-49
2022/02/09 15:13:34;;;;;;;2.25;1.90;;;;;;;13.60;95.73;97272.06;4970679;28;20073;-53
2022/02/09 15:16:10;;;;;;;3.80;2.33;;;;;;;14.00;89.94;97277.91;4967726;28;20085;-48
2022/02/09 15:21:58;;;;;;;3.38;2.15;;;;;;;13.93;90.49;97281.28;4967429;28;20043;-49
2022/02/09 15:24:19;;;;;;;2.33;1.88;;;;;;;13.89;84.31;97269.28;4969808;28;20166;-50
2022/02/09 15:26:50;;;;;;;2.58;2.10;;;;;;;13.68;88.23;97264.19;4967653;28;20117;-52
2022/02/09 15:29:19;;;;;;;3.00;2.22;;;;;;;13.93;100.00;97282.09;4966224;28;20066;-49
2022/02/09 15:31:52;;;;;;;2.05;1.90;;;;;;;13.85;92.44;97273.22;4967276;28;20070;-46
2022/02/09 15:34:28;;;;;;;4.30;2.20;;;;;;;13.85;85.41;97263.44;4963924;28;20126;-47
2022/02/09 15:37:06;;;;;;;3.33;2.30;;;;;;;13.90;90.73;97257.69;4967696;28;20564;-46
2022/02/09 15:39:39;;;;;;;2.88;2.22;;;;;;;13.68;100.00;97257.06;4994738;28;20067;-54
2022/02/09 15:42:25;;;;;;;2.30;2.10;;;;;;;13.67;99.16;97251.94;4969779;28;20085;-48
2022/02/09 16:10:41;;;;;;;3.72;2.65;;;;;;;12.45;100.00;97245.44;4965243;28;20066;-46
2022/02/09 16:24:32;;;;;;;3.10;2.28;;;;;;;11.55;100.00;97241.75;4961927;28;20821;-49
2022/02/09 16:38:23;;;;;;;2.60;2.40;;;;;;;11.30;100.00;97242.19;4961125;28;20094;-52
2022/02/09 16:46:25;;;;;;;3.35;2.70;;;;;;;11.05;100.00;97249.53;4960076;28;20070;-52
2022/02/09 16:49:00;;;;;;;4.55;2.90;;;;;;;10.95;100.00;97247.81;4944153;28;20070;-49
2022/02/09 16:51:34;;;;;;;2.83;2.60;;;;;;;10.75;100.00;97244.16;4948137;28;20062;-52
2022/02/09 16:54:23;;;;;;;3.17;2.67;;;;;;;10.56;100.00;97247.44;4964005;28;20075;-49
2022/02/09 16:57:09;;;;;;;3.42;2.50;;;;;;;10.21;100.00;97251.09;4963043;28;20399;-51
2022/02/09 17:19:02;;;;;;;7.93;4.25;;;;;;;8.96;100.00;97249.38;4963452;28;20078;-47
2022/02/09 17:21:32;;;;;;;4.60;4.20;;;;;;;8.80;100.00;97247.03;4961321;28;20058;-50
2022/02/09 17:24:02;;;;;;;4.85;4.07;;;;;;;8.20;100.00;97249.72;4963930;28;20086;-57
2022/02/09 17:26:31;;;;;;;6.78;4.22;;;;;;;8.19;100.00;97254.16;4964927;28;20071;-49
2022/02/09 17:29:02;;;;;;;7.95;5.70;;;;;;;8.09;100.00;97246.09;4971544;28;20073;-59
2022/02/09 17:31:42;;;;;;;5.60;4.63;;;;;;;8.21;100.00;97248.75;4955040;28;20078;-52
2022/02/09 17:34:42;;;;;;;5.93;4.53;;;;;;;8.19;100.00;97248.88;4955892;28;20070;-48
2022/02/09 17:37:30;;;;;;;4.22;3.45;;;;;;;8.14;100.00;97252.78;4962699;28;20078;-53
2022/02/09 17:53:59;;;;;;;5.22;3.80;;;;;;;7.68;100.00;97261.31;4960515;28;20315;-48
2022/02/09 17:56:30;;;;;;;7.50;3.90;;;;;;;7.60;100.00;97259.19;4962652;28;20067;-57
2022/02/09 17:59:01;;;;;;;5.50;4.30;;;;;;;7.52;100.00;97249.22;4962153;28;20070;-50
2022/02/09 18:01:29;;;;;;;;;;;;;;;7.11;100.00;97254.69;4959226;28;20058;-48
2022/02/09 18:03:59;;;;;;;4.40;4.00;;;;;;;7.34;100.00;97251.34;4963764;28;19969;-51
2022/02/09 18:06:31;;;;;;;5.85;4.70;;;;;;;7.16;100.00;97247.34;4964671;28;20071;-46
2022/02/09 18:09:05;;;;;;;8.70;3.65;;;;;;;6.69;100.00;97247.91;4965489;28;20075;-51
2022/02/09 18:11:47;;;;;;;5.85;3.78;;;;;;;6.60;100.00;97251.97;4964196;28;20077;-46
2022/02/09 18:14:48;;;;;;;5.32;3.97;;;;;;;6.93;100.00;97251.50;4958132;28;20063;-46
2022/02/09 18:29:12;;;;;;;5.47;4.38;;;;;;;6.58;100.00;97236.34;4947614;28;20232;-46
2022/02/09 18:31:55;;;;;;;4.05;3.65;;;;;;;6.43;100.00;97232.09;4963006;28;20059;-51
2022/02/09 18:34:46;;;;;;;4.65;4.00;;;;;;;6.39;100.00;97236.69;4963148;28;20077;-50
2022/02/09 18:42:57;;;;;;;4.60;3.95;;;;;;;6.09;100.00;97233.41;4962923;28;20031;-46
2022/02/09 18:45:36;;;;;;;4.28;3.88;;;;;;;6.03;100.00;97236.44;4964583;28;20073;-55
2022/02/09 18:48:16;;;;;;;3.70;3.40;;;;;;;5.69;100.00;97234.13;4966143;28;20063;-53
2022/02/09 18:59:33;;;;;;;6.43;5.70;;;;;;;5.67;100.00;97222.91;4924745;28;20064;-45
2022/02/09 19:04:43;;;;;;;5.15;4.13;;;;;;;5.55;100.00;97222.84;4966416;28;20476;-54
2022/02/09 19:07:35;;;;;;;6.55;3.78;;;;;;;5.44;100.00;97229.59;4964557;28;20081;-54
2022/02/09 19:16:13;;;;;;;4.75;3.80;;;;;;;5.30;100.00;97224.34;4961039;28;20082;-52
2022/02/09 19:19:01;;;;;;;3.83;3.50;;;;;;;5.24;100.00;97222.94;4967984;28;20344;-47
2022/02/09 19:27:23;;;;;;;4.63;3.90;;;;;;;5.12;100.00;97217.59;4963835;28;20694;-52
2022/02/09 19:30:01;;;;;;;5.60;3.70;;;;;;;5.02;100.00;97219.94;4961573;28;20463;-48
2022/02/09 19:46:43;;;;;;;5.40;4.30;;;;;;;4.64;100.00;97219.56;4969883;28;20062;-45
2022/02/09 19:49:17;;;;;;;7.18;4.50;;;;;;;4.67;100.00;97216.78;4966071;28;20058;-44
2022/02/09 19:52:01;;;;;;;9.43;4.85;;;;;;;4.61;100.00;97215.41;4964377;28;20078;-51
2022/02/09 19:54:42;;;;;;;5.93;4.28;;;;;;;4.56;100.00;97211.34;4964451;28;20090;-43
2022/02/09 19:57:12;;;;;;;10.15;4.90;;;;;;;4.51;100.00;97214.25;4967738;28;20086;-47
2022/02/09 19:59:43;;;;;;;7.17;5.40;;;;;;;4.46;100.00;97213.66;4965262;28;20074;-48
2022/02/09 20:02:13;;;;;;;;;;;;;;;4.41;100.00;97219.16;4964575;28;20062;-50
2022/02/09 20:04:42;;;;;;;7.45;4.60;;;;;;;4.30;100.00;97205.84;4964164;28;20501;-50
2022/02/09 20:07:10;;;;;;;9.30;5.10;;;;;;;4.40;100.00;97214.00;4967694;28;20065;-52
2022/02/09 20:09:38;;;;;;;8.45;5.43;;;;;;;4.33;100.00;97212.66;4964516;28;20086;-49
2022/02/09 20:12:08;;;;;;;9.93;5.40;;;;;;;4.32;100.00;97205.78;4967835;28;20636;-46
2022/02/09 20:14:36;;;;;;;8.27;5.53;;;;;;;4.23;100.00;97209.72;4964875;28;20078;-51
2022/02/09 20:17:06;;;;;;;10.40;5.40;;;;;;;4.21;100.00;97209.00;4965173;28;20074;-48
2022/02/09 20:19:35;;;;;;;9.27;6.25;;;;;;;4.10;100.00;97204.38;4963547;28;21042;-53
2022/02/09 20:22:03;;;;;;;11.35;5.90;;;;;;;3.97;100.00;97211.22;4964286;28;20071;-49
2022/02/09 20:24:32;;;;;;;7.88;5.15;;;;;;;4.06;100.00;97218.53;4962906;28;20097;-48
2022/02/09 20:27:04;;;;;;;7.50;5.18;;;;;;;3.87;100.00;97204.81;4949958;28;20091;-49
2022/02/09 20:29:35;;;;;;;6.30;5.57;;;;;;;3.91;100.00;97208.94;4964519;28;20086;-47